EDDT

Berlin-Tegel International Airport

Berlin, Germany
METAR EDDT 160620Z 26013KT 9999 BKN018 06/04 Q1008 TEMPO BKN012
Observed Flight Rules
Jan-16 @ 06:20 UTC (20 minutes ago) Marginal Visual Flight Rules
Wind Visibility Clouds
260° at 13 knots 10,000+ meters
  • Broken at 1,800' AGL
Temperatures Readings
Current 6°C / 43°F
Dewpoint 4°C / 39°F
Humidity 87%
Altimeter 29.76" Hg
Pressure 1007.92 hPa
Elevation 37
METAR EDDT 160620Z 26013KT 9999 BKN018 06/04 Q1008 TEMPO BKN012
Observed Flight Rules
Jan-16 @ 06:20 UTC
(20 minutes ago)
MVFR
Wind Visibility
260° at 13 knots 10,000+ meters
Clouds
  • Broken at 1,800' AGL
Temperature Dewpoint
6°C / 43°F 4°C / 39°F
Humidity Altimeter Pressure
87% 29.76" Hg 1007.92 hPa